Time;durP1;ratioP1;P1;durP2;ratioP2;P2;SDS_P1;SDS_P2;PMS_P1;PMS_P2;Temp;Humidity;BMP_temperature;BMP_pressure;BME280_temperature;BME280_humidity;BME280_pressure;Samples;Min_cycle;Max_cycle;Signal;HPM_P1;HPM_P2
2021/07/31 04:31:27;;;;;;;4.23;2.10;;;14.80;99.90;;;;;;5726569;23;20507;-76
2021/07/31 04:33:53;;;;;;;6.00;2.10;;;14.80;99.90;;;;;;4951291;29;20408;-79
2021/07/31 04:36:19;;;;;;;3.33;2.00;;;14.80;99.90;;;;;;4953721;28;20205;-78
2021/07/31 04:38:44;;;;;;;2.37;1.60;;;14.80;99.90;;;;;;4945664;29;20499;-79
2021/07/31 04:41:10;;;;;;;4.73;2.00;;;14.90;99.90;;;;;;4953196;28;20208;-77
2021/07/31 04:43:36;;;;;;;3.23;1.90;;;14.90;99.90;;;;;;4954617;28;20897;-78
2021/07/31 04:46:02;;;;;;;3.73;1.90;;;14.90;99.90;;;;;;4954556;29;20642;-77
2021/07/31 04:48:27;;;;;;;4.40;2.10;;;14.90;99.90;;;;;;4953925;28;20187;-79
2021/07/31 04:50:58;;;;;;;4.30;2.40;;;14.90;99.90;;;;;;4954066;28;20432;-78
2021/07/31 04:53:25;;;;;;;7.70;2.40;;;15.00;99.90;;;;;;4953662;28;20233;-79
2021/07/31 04:55:50;;;;;;;4.20;2.17;;;15.00;99.90;;;;;;4954036;29;20463;-79
2021/07/31 04:58:16;;;;;;;6.47;2.57;;;15.10;99.90;;;;;;4953792;28;20427;-78
2021/07/31 05:00:41;;;;;;;7.23;2.33;;;15.20;99.90;;;;;;4952452;28;20668;-77
2021/07/31 05:03:07;;;;;;;4.30;2.40;;;15.20;99.90;;;;;;4953934;28;20177;-78
2021/07/31 05:05:33;;;;;;;3.03;2.60;;;15.30;99.90;;;;;;4953736;29;20184;-79
2021/07/31 05:07:59;;;;;;;8.33;2.27;;;15.40;99.90;;;;;;4953518;28;20177;-78
2021/07/31 05:10:24;;;;;;;5.23;2.73;;;15.40;99.90;;;;;;4953782;29;20419;-79
2021/07/31 05:12:50;;;;;;;3.20;2.37;;;15.50;99.90;;;;;;4952510;28;20666;-78
2021/07/31 05:15:16;;;;;;;2.17;1.57;;;15.60;99.90;;;;;;4952748;29;20208;-79
2021/07/31 05:17:41;;;;;;;4.43;2.07;;;15.70;99.90;;;;;;4953874;29;20205;-78
2021/07/31 05:20:07;;;;;;;1.50;1.40;;;15.90;99.90;;;;;;4953959;29;20184;-78
2021/07/31 05:22:32;;;;;;;4.10;1.83;;;16.00;99.90;;;;;;4953492;28;20188;-77
2021/07/31 05:24:58;;;;;;;4.27;1.60;;;16.30;99.90;;;;;;4954076;28;20757;-78
2021/07/31 05:27:23;;;;;;;4.53;2.40;;;16.70;99.90;;;;;;4953903;28;20626;-79
2021/07/31 05:29:49;;;;;;;4.40;1.50;;;17.10;99.90;;;;;;4953896;28;20176;-78
2021/07/31 05:32:14;;;;;;;5.13;1.30;;;17.60;99.90;;;;;;4953782;28;20208;-79
2021/07/31 05:34:40;;;;;;;4.43;1.57;;;18.10;99.90;;;;;;4954212;28;20818;-80
2021/07/31 05:37:05;;;;;;;5.80;2.10;;;18.60;99.90;;;;;;4953801;29;20335;-78
2021/07/31 05:39:33;;;;;;;1.87;1.60;;;18.90;99.90;;;;;;4953118;29;20201;-78
2021/07/31 05:42:02;;;;;;;2.00;1.60;;;19.40;99.90;;;;;;4953166;28;20189;-79
2021/07/31 05:44:29;;;;;;;2.33;1.33;;;19.80;99.90;;;;;;4958272;28;20920;-79
2021/07/31 05:46:54;;;;;;;2.90;1.70;;;20.20;99.90;;;;;;4960318;28;20412;-79
2021/07/31 05:49:20;;;;;;;2.13;1.30;;;20.70;99.90;;;;;;4959040;28;20420;-79
2021/07/31 05:51:45;;;;;;;2.30;1.30;;;21.00;99.90;;;;;;4960302;28;20196;-78
2021/07/31 05:54:11;;;;;;;3.70;1.23;;;21.30;99.90;;;;;;4959371;28;20187;-79
2021/07/31 05:56:37;;;;;;;3.57;1.30;;;21.40;99.90;;;;;;4960555;28;20216;-79
2021/07/31 05:59:03;;;;;;;20.60;1.77;;;21.60;99.90;;;;;;4960586;28;20231;-78
2021/07/31 06:01:33;;;;;;;2.63;1.10;;;21.70;99.90;;;;;;4960168;28;20666;-79
2021/07/31 06:03:58;;;;;;;2.77;1.17;;;21.90;99.90;;;;;;4960302;29;20172;-79
2021/07/31 06:06:24;;;;;;;4.83;1.33;;;22.10;99.90;;;;;;4960030;28;20426;-80
2021/07/31 06:08:49;;;;;;;3.60;1.20;;;22.20;99.90;;;;;;4960209;29;20193;-78
2021/07/31 06:11:15;;;;;;;5.70;1.17;;;22.30;99.90;;;;;;4960421;28;20291;-78
2021/07/31 06:13:41;;;;;;;8.33;1.70;;;22.50;99.90;;;;;;4959105;29;20650;-77
2021/07/31 06:16:09;;;;;;;2.30;1.23;;;22.60;99.90;;;;;;4960453;28;20267;-78
2021/07/31 06:18:37;;;;;;;1.80;1.07;;;22.50;99.90;;;;;;4959902;29;20188;-79
2021/07/31 06:21:03;;;;;;;3.30;1.30;;;22.60;99.90;;;;;;4960580;28;20432;-79
2021/07/31 06:23:29;;;;;;;1.93;1.27;;;22.50;99.90;;;;;;4960152;29;20494;-79
2021/07/31 06:26:03;;;;;;;2.60;1.30;;;22.60;99.90;;;;;;4960368;28;20555;-78
2021/07/31 06:28:29;;;;;;;3.00;1.23;;;23.00;99.90;;;;;;4974150;28;20180;-77
2021/07/31 06:30:54;;;;;;;4.47;1.47;;;23.20;99.90;;;;;;4959152;28;20442;-78
2021/07/31 06:33:20;;;;;;;4.67;1.57;;;23.30;99.90;;;;;;4957870;28;20279;-78
2021/07/31 06:35:45;;;;;;;5.00;1.13;;;23.20;99.90;;;;;;4959207;29;20208;-78
2021/07/31 06:38:12;;;;;;;3.13;1.30;;;23.40;99.90;;;;;;4959513;28;20227;-77
2021/07/31 06:40:37;;;;;;;11.13;1.43;;;23.50;99.90;;;;;;4960549;28;20173;-78
2021/07/31 06:43:03;;;;;;;2.93;1.17;;;23.50;99.90;;;;;;4960880;28;20519;-76
2021/07/31 06:45:28;;;;;;;4.40;1.10;;;23.60;99.90;;;;;;4960580;28;20646;-79
2021/07/31 06:47:54;;;;;;;1.87;1.77;;;23.80;99.90;;;;;;4960495;28;20267;-79
2021/07/31 06:50:19;;;;;;;7.03;1.60;;;23.90;99.90;;;;;;4960126;29;20172;-79
2021/07/31 06:52:45;;;;;;;3.53;1.30;;;24.20;99.90;;;;;;4959961;28;20235;-79
2021/07/31 06:55:11;;;;;;;2.73;1.50;;;24.60;99.90;;;;;;4959221;28;20288;-77
2021/07/31 06:57:37;;;;;;;4.17;1.50;;;24.30;99.90;;;;;;4957036;29;20185;-79
2021/07/31 07:00:04;;;;;;;3.33;1.40;;;24.20;99.90;;;;;;4957865;29;20185;-80
2021/07/31 07:02:29;;;;;;;7.77;1.30;;;23.90;99.90;;;;;;4956122;28;20774;-78
2021/07/31 07:04:55;;;;;;;5.83;1.10;;;24.00;99.90;;;;;;4957863;28;20409;-79
2021/07/31 07:07:20;;;;;;;2.83;1.40;;;24.40;99.90;;;;;;4957783;28;20180;-79
2021/07/31 07:09:46;;;;;;;3.00;1.40;;;24.50;99.90;;;;;;4957530;28;20642;-79
2021/07/31 07:12:12;;;;;;;2.17;1.67;;;24.60;99.90;;;;;;4955730;28;20672;-79
2021/07/31 07:14:37;;;;;;;4.73;1.17;;;24.90;99.90;;;;;;4957237;29;20180;-79
2021/07/31 07:17:06;;;;;;;3.90;1.07;;;25.00;99.90;;;;;;4957573;29;20547;-79
2021/07/31 07:19:32;;;;;;;9.93;1.87;;;25.30;99.90;;;;;;4957092;28;20204;-79
2021/07/31 07:21:58;;;;;;;5.13;1.73;;;25.40;99.90;;;;;;4957159;28;20467;-77
2021/07/31 07:24:24;;;;;;;6.20;1.43;;;25.40;99.90;;;;;;4956573;28;20443;-79
2021/07/31 07:26:49;;;;;;;4.47;0.87;;;25.50;99.90;;;;;;4957351;28;20275;-79
2021/07/31 07:29:15;;;;;;;3.57;1.13;;;25.50;99.90;;;;;;4956929;28;20255;-78
2021/07/31 07:31:40;;;;;;;3.33;1.10;;;25.70;99.90;;;;;;4956612;28;20283;-79
2021/07/31 07:34:06;;;;;;;6.37;1.57;;;25.80;99.90;;;;;;4956701;29;20544;-80
2021/07/31 07:36:32;;;;;;;5.80;1.37;;;25.80;99.90;;;;;;4956654;28;20252;-79
2021/07/31 07:38:57;;;;;;;1.53;1.40;;;25.60;99.90;;;;;;4956604;28;20642;-80
2021/07/31 07:41:23;;;;;;;7.80;1.47;;;25.90;99.90;;;;;;4956782;28;20658;-79
2021/07/31 07:43:48;;;;;;;6.17;1.30;;;26.20;99.90;;;;;;4956488;28;20553;-79
2021/07/31 07:46:17;;;;;;;1.90;1.00;;;26.00;99.90;;;;;;4955407;29;20189;-79
2021/07/31 07:48:45;;;;;;;2.93;1.23;;;26.20;99.90;;;;;;4956697;28;20552;-79
2021/07/31 07:51:11;;;;;;;4.83;1.10;;;26.00;99.90;;;;;;4956610;28;20428;-79
2021/07/31 07:53:36;;;;;;;3.93;1.20;;;25.70;99.90;;;;;;4956375;28;20423;-78
2021/07/31 07:56:03;;;;;;;1.10;0.97;;;25.80;99.90;;;;;;4956302;28;20559;-77
2021/07/31 07:58:28;;;;;;;1.87;1.00;;;26.00;99.90;;;;;;4956717;28;20601;-79
2021/07/31 08:00:54;;;;;;;2.53;0.80;;;25.80;99.90;;;;;;4956727;28;20523;-79
2021/07/31 08:03:20;;;;;;;2.60;1.00;;;26.20;99.90;;;;;;4956237;29;20255;-79
2021/07/31 08:05:45;;;;;;;4.03;1.23;;;25.90;99.90;;;;;;4956801;29;20181;-78
2021/07/31 08:08:11;;;;;;;6.80;1.60;;;25.60;99.90;;;;;;4955761;28;20678;-80
2021/07/31 08:10:37;;;;;;;6.80;1.63;;;25.30;99.90;;;;;;4956211;28;20188;-79
2021/07/31 08:13:03;;;;;;;1.57;1.17;;;24.70;99.90;;;;;;4956169;29;20408;-78
2021/07/31 08:15:29;;;;;;;2.60;1.50;;;24.50;99.90;;;;;;4956372;29;20251;-80
2021/07/31 08:17:55;;;;;;;3.43;1.47;;;24.40;99.90;;;;;;4955817;28;20420;-80
2021/07/31 08:20:21;;;;;;;2.40;1.67;;;24.30;99.90;;;;;;4955692;28;20420;-79
2021/07/31 08:22:47;;;;;;;3.23;1.03;;;24.30;99.90;;;;;;4955987;28;20192;-79
2021/07/31 08:25:13;;;;;;;3.53;1.20;;;24.90;99.90;;;;;;4956078;28;20952;-78
2021/07/31 08:27:38;;;;;;;2.50;1.13;;;25.10;99.90;;;;;;4955074;29;20432;-79
2021/07/31 08:30:05;;;;;;;5.27;1.23;;;25.20;99.90;;;;;;4955824;29;20180;-79
2021/07/31 08:32:30;;;;;;;3.83;0.93;;;25.20;99.90;;;;;;4953922;28;20716;-79
2021/07/31 08:34:56;;;;;;;4.97;1.13;;;25.30;99.90;;;;;;4955760;29;20421;-79
2021/07/31 08:37:22;;;;;;;3.50;1.40;;;25.10;99.90;;;;;;4956154;28;20168;-76
2021/07/31 08:39:48;;;;;;;2.43;1.20;;;25.10;99.90;;;;;;4955806;28;20180;-80
2021/07/31 08:42:14;;;;;;;3.20;1.13;;;25.50;99.90;;;;;;4956171;28;20232;-78
2021/07/31 08:44:40;;;;;;;1.30;1.13;;;25.70;99.90;;;;;;4956109;29;20177;-79
2021/07/31 08:47:08;;;;;;;9.57;1.53;;;26.00;99.90;;;;;;4955510;29;20412;-79
2021/07/31 08:49:35;;;;;;;2.10;0.90;;;26.70;99.90;;;;;;4956295;29;20413;-77
2021/07/31 08:52:02;;;;;;;4.30;1.60;;;27.10;99.90;;;;;;4955859;28;20471;-79
2021/07/31 08:54:28;;;;;;;5.57;1.30;;;27.80;99.90;;;;;;4956479;29;20471;-79
2021/07/31 08:56:55;;;;;;;1.60;1.30;;;28.60;99.90;;;;;;4955528;29;20460;-80
2021/07/31 08:59:27;;;;;;;2.40;0.90;;;28.40;99.90;;;;;;4955889;29;20196;-80
2021/07/31 09:01:53;;;;;;;6.93;1.30;;;28.30;99.90;;;;;;4954505;28;20487;-80
2021/07/31 09:04:20;;;;;;;5.17;1.40;;;27.50;99.90;;;;;;4955484;29;20444;-78
2021/07/31 09:06:45;;;;;;;2.77;1.30;;;27.40;99.90;;;;;;4955328;29;20416;-79
2021/07/31 09:09:12;;;;;;;3.53;1.30;;;27.80;99.90;;;;;;4955677;28;20443;-79
2021/07/31 09:11:57;;;;;;;3.40;1.20;;;28.10;99.90;;;;;;4955804;28;20218;-79
2021/07/31 09:14:22;;;;;;;8.93;1.60;;;28.30;99.90;;;;;;4956272;29;20468;-79
2021/07/31 09:16:48;;;;;;;4.30;1.90;;;28.60;99.90;;;;;;4956352;28;20498;-80
2021/07/31 09:19:15;;;;;;;4.17;1.30;;;28.30;99.90;;;;;;4955577;28;20177;-80
2021/07/31 09:21:42;;;;;;;2.67;1.20;;;28.20;99.90;;;;;;4956229;28;20348;-80
2021/07/31 09:24:22;;;;;;;3.23;1.20;;;28.30;99.90;;;;;;4955309;29;20435;-79
2021/07/31 09:26:50;;;;;;;3.03;1.03;;;27.70;99.90;;;;;;4956873;28;20428;-81
2021/07/31 09:29:18;;;;;;;2.73;1.67;;;27.20;99.90;;;;;;4956229;28;20503;-80
2021/07/31 09:31:49;;;;;;;2.60;1.40;;;27.40;99.90;;;;;;4955406;28;20470;-79
2021/07/31 09:34:45;;;;;;;3.93;1.33;;;27.70;99.90;;;;;;4956258;29;20432;-79
2021/07/31 09:37:11;;;;;;;3.40;1.10;;;28.30;99.90;;;;;;4956285;28;20468;-80
2021/07/31 09:39:52;;;;;;;9.77;1.50;;;27.90;99.90;;;;;;4955972;29;20428;-77
2021/07/31 09:42:36;;;;;;;1.43;1.10;;;27.20;99.90;;;;;;4955270;28;20200;-79
2021/07/31 09:45:14;;;;;;;4.23;1.20;;;26.20;99.90;;;;;;4955500;29;20506;-78
2021/07/31 09:48:02;;;;;;;3.33;1.57;;;26.20;99.90;;;;;;4955519;29;20783;-79
2021/07/31 09:50:46;;;;;;;9.03;1.20;;;26.40;99.90;;;;;;4954912;28;20507;-79
2021/07/31 09:53:13;;;;;;;5.20;1.07;;;27.40;99.90;;;;;;4955591;29;20413;-79
2021/07/31 09:55:46;;;;;;;3.47;1.77;;;28.00;99.90;;;;;;4955037;29;20464;-79
2021/07/31 09:58:17;;;;;;;5.70;1.10;;;28.20;99.90;;;;;;4955981;29;20951;-80
2021/07/31 10:00:47;;;;;;;3.93;1.00;;;28.00;99.90;;;;;;4955650;28;20411;-79
2021/07/31 10:03:14;;;;;;;3.83;1.60;;;27.90;99.90;;;;;;4955638;28;20405;-80
2021/07/31 10:05:41;;;;;;;2.10;1.30;;;27.70;99.90;;;;;;4955536;28;20423;-79
2021/07/31 10:08:07;;;;;;;5.07;1.73;;;28.30;99.90;;;;;;4955901;28;20787;-79
2021/07/31 10:10:34;;;;;;;6.07;1.33;;;28.70;99.90;;;;;;4955904;28;20800;-77
2021/07/31 10:13:00;;;;;;;2.00;1.07;;;28.70;99.90;;;;;;4956404;29;20932;-80
2021/07/31 10:15:26;;;;;;;3.20;1.30;;;29.10;99.90;;;;;;4955875;29;20455;-80
2021/07/31 10:17:52;;;;;;;5.23;1.40;;;28.60;99.90;;;;;;4955645;28;20444;-80
2021/07/31 10:20:28;;;;;;;2.07;1.20;;;28.20;99.90;;;;;;4954807;29;20184;-80
2021/07/31 10:22:54;;;;;;;7.13;1.50;;;28.70;99.90;;;;;;4955638;28;20490;-79
2021/07/31 10:25:23;;;;;;;3.40;1.50;;;28.80;99.90;;;;;;4955726;29;20798;-81
2021/07/31 10:27:50;;;;;;;2.63;1.67;;;29.40;99.90;;;;;;4956149;29;20499;-79
2021/07/31 10:30:30;;;;;;;1.77;1.10;;;30.10;99.90;;;;;;4957723;28;20556;-81
2021/07/31 10:32:56;;;;;;;3.53;1.00;;;30.50;99.90;;;;;;4959719;28;20455;-81
2021/07/31 10:35:26;;;;;;;3.97;1.33;;;30.40;99.90;;;;;;4959937;28;20491;-78
2021/07/31 10:37:57;;;;;;;2.40;1.20;;;30.30;99.90;;;;;;4959175;29;20491;-80
2021/07/31 10:40:25;;;;;;;2.20;1.00;;;29.90;99.90;;;;;;4959442;28;20419;-80
2021/07/31 10:42:51;;;;;;;2.27;1.10;;;29.40;99.90;;;;;;4959687;28;20428;-80
2021/07/31 10:45:16;;;;;;;1.53;1.00;;;29.30;99.90;;;;;;4959156;29;20432;-80
2021/07/31 10:47:44;;;;;;;1.17;1.07;;;29.50;99.90;;;;;;4959529;29;20183;-78
2021/07/31 10:50:22;;;;;;;6.00;1.37;;;30.10;99.90;;;;;;4959615;28;20184;-80
2021/07/31 10:52:53;;;;;;;1.77;1.10;;;30.50;99.90;;;;;;4960324;28;20432;-80
2021/07/31 10:55:38;;;;;;;6.40;1.23;;;30.20;99.90;;;;;;4959176;29;20600;-79
2021/07/31 10:58:08;;;;;;;1.43;1.20;;;30.00;99.90;;;;;;4958935;29;20400;-78
2021/07/31 11:00:37;;;;;;;2.10;1.17;;;29.90;99.90;;;;;;4959001;28;20487;-79
2021/07/31 11:03:25;;;;;;;7.10;1.10;;;30.30;99.90;;;;;;4959527;28;20416;-77
2021/07/31 11:06:05;;;;;;;1.20;1.00;;;30.00;99.90;;;;;;4959159;28;20427;-80
2021/07/31 11:08:55;;;;;;;2.20;1.17;;;30.00;99.90;;;;;;4959269;28;20420;-80
2021/07/31 11:11:20;;;;;;;2.73;1.80;;;30.00;99.90;;;;;;4958448;28;21000;-80
2021/07/31 11:13:46;;;;;;;3.07;1.50;;;29.90;99.90;;;;;;4958738;29;20425;-80
2021/07/31 11:16:14;;;;;;;3.00;1.40;;;30.10;99.90;;;;;;4958778;29;20209;-78
2021/07/31 11:18:47;;;;;;;4.90;1.30;;;30.00;99.90;;;;;;4956415;29;20205;-79
2021/07/31 11:21:21;;;;;;;1.43;1.20;;;29.20;99.90;;;;;;4958460;28;20432;-80
2021/07/31 11:23:49;;;;;;;4.50;1.30;;;28.10;99.90;;;;;;4958321;29;20420;-80
2021/07/31 11:26:33;;;;;;;3.37;1.30;;;27.60;99.90;;;;;;4958389;28;20942;-80
2021/07/31 11:29:00;;;;;;;1.80;0.83;;;27.30;99.90;;;;;;4957727;29;20852;-79
2021/07/31 11:31:26;;;;;;;1.67;1.20;;;27.20;99.90;;;;;;4957413;28;20452;-79
2021/07/31 11:34:12;;;;;;;1.90;1.27;;;27.50;99.90;;;;;;4955676;29;20451;-80
2021/07/31 11:36:39;;;;;;;1.63;1.53;;;27.30;99.90;;;;;;4957497;28;20999;-78
2021/07/31 11:39:06;;;;;;;1.50;1.40;;;27.50;99.90;;;;;;4957253;28;20914;-80
2021/07/31 11:41:42;;;;;;;5.23;1.10;;;27.80;99.90;;;;;;4956372;28;20538;-78
2021/07/31 11:44:09;;;;;;;1.43;1.17;;;27.80;99.90;;;;;;4957268;28;21118;-78
2021/07/31 11:46:43;;;;;;;2.50;1.20;;;28.00;99.90;;;;;;4957075;28;20420;-80
2021/07/31 11:49:30;;;;;;;4.60;1.43;;;28.10;99.90;;;;;;4956969;28;20417;-77
2021/07/31 11:51:58;;;;;;;3.83;1.80;;;27.80;99.90;;;;;;4956634;28;20451;-80
2021/07/31 11:54:24;;;;;;;4.10;1.70;;;27.80;99.90;;;;;;4956890;29;20424;-79
2021/07/31 11:56:51;;;;;;;3.03;1.40;;;27.90;99.90;;;;;;4957102;28;20547;-79
2021/07/31 11:59:37;;;;;;;2.77;1.40;;;28.00;99.90;;;;;;4956792;28;20416;-80
2021/07/31 12:02:03;;;;;;;1.57;0.90;;;27.80;99.90;;;;;;4957114;28;20503;-79
2021/07/31 12:04:50;;;;;;;4.20;1.30;;;27.60;99.90;;;;;;4955751;29;20827;-79
2021/07/31 12:07:20;;;;;;;7.53;2.20;;;27.50;99.90;;;;;;4956967;29;20862;-79
2021/07/31 12:10:00;;;;;;;2.17;1.37;;;27.90;99.90;;;;;;4955271;29;20549;-78
2021/07/31 12:12:31;;;;;;;1.90;1.10;;;28.30;99.90;;;;;;4954853;28;20440;-79
2021/07/31 12:15:10;;;;;;;1.33;1.10;;;28.30;99.90;;;;;;4955366;28;20411;-78
2021/07/31 12:17:40;;;;;;;4.00;1.23;;;27.80;99.90;;;;;;4955147;29;20444;-79
2021/07/31 12:20:07;;;;;;;1.97;1.13;;;27.70;99.90;;;;;;4954905;28;20398;-79
2021/07/31 12:22:34;;;;;;;1.23;0.80;;;27.70;99.90;;;;;;4954515;28;20425;-79
2021/07/31 12:25:08;;;;;;;3.20;1.00;;;27.90;99.90;;;;;;4955831;28;20412;-79
2021/07/31 12:27:55;;;;;;;5.17;1.60;;;27.60;99.90;;;;;;4953499;29;20770;-78
2021/07/31 12:30:29;;;;;;;5.03;1.40;;;27.00;99.90;;;;;;4954813;29;20404;-79
2021/07/31 12:33:05;;;;;;;2.47;1.10;;;26.90;99.90;;;;;;4954639;28;21087;-79
2021/07/31 12:35:53;;;;;;;5.60;1.27;;;26.80;99.90;;;;;;4953516;29;20459;-80
2021/07/31 12:38:21;;;;;;;3.23;1.83;;;27.00;99.90;;;;;;4954956;28;20408;-77
2021/07/31 12:40:58;;;;;;;2.93;1.10;;;26.90;99.90;;;;;;4955178;28;20917;-78
2021/07/31 12:43:25;;;;;;;2.40;0.90;;;26.60;99.90;;;;;;4953794;29;20427;-78
2021/07/31 12:45:52;;;;;;;2.90;1.57;;;26.20;99.90;;;;;;4953529;29;20479;-77
2021/07/31 12:48:18;;;;;;;2.70;1.10;;;26.00;99.90;;;;;;4954487;28;20439;-79
2021/07/31 12:50:44;;;;;;;2.93;1.33;;;25.80;99.90;;;;;;4954457;28;20797;-79
2021/07/31 12:53:15;;;;;;;1.40;1.10;;;25.50;99.90;;;;;;4953392;28;20772;-79
2021/07/31 12:55:41;;;;;;;1.60;1.00;;;25.40;99.90;;;;;;4954443;28;20464;-79
2021/07/31 12:58:07;;;;;;;2.10;1.50;;;25.40;99.90;;;;;;4955052;28;20945;-79
2021/07/31 13:00:33;;;;;;;3.23;1.50;;;25.30;99.90;;;;;;4953972;28;20404;-78
2021/07/31 13:02:59;;;;;;;2.50;1.63;;;25.20;99.90;;;;;;4954274;28;20700;-80
2021/07/31 13:05:26;;;;;;;5.47;1.97;;;25.10;99.90;;;;;;4954183;28;20412;-78
2021/07/31 13:07:53;;;;;;;7.37;1.70;;;25.10;99.90;;;;;;4953331;29;20240;-79
2021/07/31 13:10:20;;;;;;;5.47;1.20;;;25.20;99.90;;;;;;4954489;29;20440;-76
2021/07/31 13:12:46;;;;;;;10.73;1.50;;;25.30;99.90;;;;;;4954092;28;20456;-77
2021/07/31 13:15:11;;;;;;;2.00;1.50;;;25.50;99.90;;;;;;4955108;29;20483;-78
2021/07/31 13:17:37;;;;;;;6.20;1.23;;;25.70;99.90;;;;;;4955257;28;20214;-79
2021/07/31 13:20:04;;;;;;;3.73;1.70;;;25.90;99.90;;;;;;4955583;29;20180;-78
2021/07/31 13:22:30;;;;;;;2.90;1.23;;;26.30;99.90;;;;;;4955018;28;20239;-80
2021/07/31 13:24:57;;;;;;;4.70;1.67;;;26.50;99.90;;;;;;4955700;29;20420;-79
2021/07/31 13:27:26;;;;;;;4.00;1.30;;;26.70;99.90;;;;;;4955604;29;20210;-81
2021/07/31 13:29:52;;;;;;;6.63;1.20;;;26.90;99.90;;;;;;4956033;28;20416;-80
2021/07/31 13:32:19;;;;;;;5.77;1.80;;;26.70;99.90;;;;;;4955319;28;20451;-80
2021/07/31 13:34:44;;;;;;;6.40;1.00;;;26.50;99.90;;;;;;4954205;29;20425;-80
2021/07/31 13:37:18;;;;;;;1.23;1.13;;;26.30;99.90;;;;;;4955261;28;20481;-80
2021/07/31 13:39:48;;;;;;;3.13;1.50;;;26.30;99.90;;;;;;4954992;28;20181;-80
2021/07/31 13:42:14;;;;;;;2.80;1.80;;;26.10;99.90;;;;;;4955484;28;20945;-80
2021/07/31 13:44:40;;;;;;;7.20;1.27;;;25.90;99.90;;;;;;4953418;29;20420;-80
2021/07/31 13:47:08;;;;;;;1.63;0.90;;;26.00;99.90;;;;;;4955499;28;20449;-81
2021/07/31 13:49:33;;;;;;;5.83;1.40;;;26.10;99.90;;;;;;4954417;29;20515;-77
2021/07/31 13:52:03;;;;;;;2.17;1.43;;;26.20;99.90;;;;;;4955243;28;20952;-80
2021/07/31 13:54:29;;;;;;;1.73;1.20;;;26.20;99.90;;;;;;4954605;28;20188;-80
2021/07/31 13:56:56;;;;;;;1.63;1.30;;;26.20;99.90;;;;;;4955344;28;20468;-80
2021/07/31 13:59:22;;;;;;;2.17;1.30;;;26.10;99.90;;;;;;4955743;29;20417;-79
2021/07/31 14:01:48;;;;;;;2.50;1.87;;;25.70;99.90;;;;;;4955126;28;20440;-77
2021/07/31 14:04:14;;;;;;;1.33;1.07;;;25.40;99.90;;;;;;4955166;28;20428;-80
2021/07/31 14:06:39;;;;;;;6.47;1.70;;;25.40;99.90;;;;;;4958884;29;20185;-80
2021/07/31 14:09:05;;;;;;;3.77;1.60;;;25.40;99.90;;;;;;4957950;29;20542;-79
2021/07/31 14:11:30;;;;;;;6.23;1.60;;;25.30;99.90;;;;;;4958354;28;20200;-79
2021/07/31 14:13:56;;;;;;;1.73;1.60;;;25.20;99.90;;;;;;4958730;29;20235;-80
2021/07/31 14:16:21;;;;;;;3.17;1.77;;;25.30;99.90;;;;;;4958128;28;20697;-79
2021/07/31 14:18:47;;;;;;;1.23;1.13;;;25.40;99.90;;;;;;4958725;28;20659;-80
2021/07/31 14:21:14;;;;;;;2.97;1.50;;;25.40;99.90;;;;;;4958494;28;20203;-79
2021/07/31 14:23:40;;;;;;;1.80;1.60;;;25.60;99.90;;;;;;4958337;28;20192;-80
2021/07/31 14:26:12;;;;;;;4.47;1.27;;;25.70;99.90;;;;;;4973975;28;20424;-79
2021/07/31 14:28:39;;;;;;;1.90;1.33;;;25.60;99.90;;;;;;4956787;29;20191;-79
2021/07/31 14:31:05;;;;;;;2.60;1.63;;;25.40;99.90;;;;;;4958041;28;20446;-78
2021/07/31 14:33:31;;;;;;;3.20;1.20;;;25.50;99.90;;;;;;4958212;28;20523;-80
2021/07/31 14:35:56;;;;;;;1.97;1.23;;;25.50;99.90;;;;;;4958598;29;20543;-80
2021/07/31 14:38:22;;;;;;;5.17;1.30;;;25.20;99.90;;;;;;4956733;29;20624;-79
2021/07/31 14:40:47;;;;;;;4.20;1.57;;;25.10;99.90;;;;;;4957925;28;20177;-80
2021/07/31 14:43:13;;;;;;;2.30;1.37;;;24.80;99.90;;;;;;4958136;28;20552;-79
2021/07/31 14:45:39;;;;;;;3.53;1.10;;;24.90;99.90;;;;;;4958017;28;20263;-80
2021/07/31 14:48:05;;;;;;;4.33;1.37;;;25.00;99.90;;;;;;4958234;28;20887;-79
2021/07/31 14:50:30;;;;;;;2.87;1.50;;;24.90;99.90;;;;;;4958033;28;20188;-79
2021/07/31 14:52:57;;;;;;;2.97;1.77;;;25.10;99.90;;;;;;4958219;28;20209;-77
2021/07/31 14:55:23;;;;;;;3.13;1.70;;;25.00;99.90;;;;;;4957796;29;20192;-78
2021/07/31 14:57:48;;;;;;;11.97;1.30;;;25.00;99.90;;;;;;4957818;29;20404;-80
2021/07/31 15:00:15;;;;;;;5.50;1.50;;;25.10;99.90;;;;;;4958031;28;20180;-79
2021/07/31 15:02:40;;;;;;;3.30;1.60;;;25.10;99.90;;;;;;4957647;28;20201;-79
2021/07/31 15:05:06;;;;;;;2.70;1.60;;;25.10;99.90;;;;;;4957572;28;20448;-80
2021/07/31 15:07:32;;;;;;;2.80;1.43;;;24.90;99.90;;;;;;4957416;29;20192;-79
2021/07/31 15:09:57;;;;;;;4.83;1.10;;;24.90;99.90;;;;;;4956191;29;20188;-79
2021/07/31 15:12:23;;;;;;;2.40;1.67;;;24.90;99.90;;;;;;4955762;28;20205;-79
2021/07/31 15:14:48;;;;;;;2.00;1.50;;;24.90;99.90;;;;;;4956182;29;20345;-79
2021/07/31 15:17:16;;;;;;;1.40;1.30;;;25.00;99.90;;;;;;4954606;28;20545;-80
2021/07/31 15:19:42;;;;;;;1.80;1.40;;;25.00;99.90;;;;;;4956106;28;20188;-77
2021/07/31 15:22:08;;;;;;;2.47;1.63;;;25.10;99.90;;;;;;4955793;28;20429;-79
2021/07/31 15:24:33;;;;;;;4.70;1.30;;;25.10;99.90;;;;;;4955609;28;20200;-77
2021/07/31 15:26:59;;;;;;;1.57;1.30;;;25.20;99.90;;;;;;4955973;29;20654;-79
2021/07/31 15:29:24;;;;;;;4.57;1.77;;;25.30;99.90;;;;;;4954677;29;20189;-80
2021/07/31 15:31:50;;;;;;;2.93;1.60;;;25.30;99.90;;;;;;4955795;28;20234;-80
2021/07/31 15:34:16;;;;;;;3.03;1.43;;;25.40;99.90;;;;;;4955708;29;20188;-80
2021/07/31 15:36:41;;;;;;;1.57;1.10;;;25.30;99.90;;;;;;4956657;29;20251;-79
2021/07/31 15:39:06;;;;;;;2.17;1.70;;;25.20;99.90;;;;;;4957072;29;20187;-79
2021/07/31 15:41:32;;;;;;;7.17;1.80;;;25.20;99.90;;;;;;4956926;28;20208;-80
2021/07/31 15:44:01;;;;;;;6.33;1.60;;;25.10;99.90;;;;;;4956973;28;20176;-80
2021/07/31 15:46:26;;;;;;;2.30;1.20;;;25.10;99.90;;;;;;4956676;28;20184;-80
2021/07/31 15:48:52;;;;;;;3.83;1.57;;;24.80;99.90;;;;;;4956454;29;20439;-77
2021/07/31 15:51:17;;;;;;;3.13;1.27;;;24.80;99.90;;;;;;4956650;28;20196;-80
2021/07/31 15:53:47;;;;;;;2.67;1.80;;;24.70;99.90;;;;;;4956616;29;20264;-79
2021/07/31 15:56:13;;;;;;;2.17;1.43;;;24.60;99.90;;;;;;4956810;29;20232;-78
2021/07/31 15:58:39;;;;;;;2.80;1.53;;;24.30;99.90;;;;;;4955610;29;20791;-79
2021/07/31 16:01:04;;;;;;;5.03;2.27;;;24.30;99.90;;;;;;4955398;28;20428;-79
2021/07/31 16:03:30;;;;;;;6.67;2.40;;;24.20;99.90;;;;;;4955436;28;20168;-79
2021/07/31 16:05:55;;;;;;;5.70;1.90;;;24.20;99.90;;;;;;4955065;29;20185;-79
2021/07/31 16:08:21;;;;;;;9.17;1.43;;;24.10;99.90;;;;;;4955221;28;20189;-77
2021/07/31 16:10:46;;;;;;;4.50;1.57;;;24.00;99.90;;;;;;4954973;28;20185;-79
2021/07/31 16:13:12;;;;;;;1.63;1.20;;;24.00;99.90;;;;;;4955250;29;20185;-77
2021/07/31 16:15:41;;;;;;;1.50;1.40;;;23.90;99.90;;;;;;4954867;29;20212;-79
2021/07/31 16:18:06;;;;;;;11.30;2.30;;;23.90;99.90;;;;;;4956423;29;20244;-79
2021/07/31 16:20:32;;;;;;;5.50;1.43;;;23.80;99.90;;;;;;4956289;28;20440;-79
2021/07/31 16:22:57;;;;;;;3.20;1.50;;;23.80;99.90;;;;;;4956358;28;20232;-79
2021/07/31 16:25:24;;;;;;;5.00;1.83;;;23.70;99.90;;;;;;4957305;28;20188;-79
2021/07/31 16:27:50;;;;;;;7.53;3.00;;;23.50;99.90;;;;;;4957125;28;20255;-80
2021/07/31 16:30:16;;;;;;;2.80;1.67;;;23.50;99.90;;;;;;4956458;28;20771;-80
2021/07/31 16:32:41;;;;;;;3.20;2.83;;;23.50;99.90;;;;;;4954654;28;20696;-77
2021/07/31 16:35:07;;;;;;;2.63;2.40;;;23.50;99.90;;;;;;4956329;29;20208;-80
2021/07/31 16:37:33;;;;;;;2.13;1.73;;;23.40;99.90;;;;;;4955874;28;20559;-78
2021/07/31 16:39:58;;;;;;;4.73;1.40;;;23.30;99.90;;;;;;4956654;28;20185;-79
2021/07/31 16:42:24;;;;;;;3.90;1.80;;;23.30;99.90;;;;;;4956060;28;20200;-80
2021/07/31 16:44:49;;;;;;;4.63;1.80;;;23.20;99.90;;;;;;4956266;28;20542;-79
2021/07/31 16:47:15;;;;;;;5.67;1.63;;;23.10;99.90;;;;;;4956109;29;20228;-79
2021/07/31 16:49:41;;;;;;;3.10;1.80;;;23.10;99.90;;;;;;4955914;29;20598;-77
2021/07/31 16:52:06;;;;;;;5.70;2.20;;;23.00;99.90;;;;;;4954551;28;20463;-80
2021/07/31 16:54:32;;;;;;;3.63;1.77;;;23.00;99.90;;;;;;4955822;29;20219;-80
2021/07/31 16:56:57;;;;;;;4.83;2.17;;;22.90;99.90;;;;;;4956123;28;20224;-79
2021/07/31 16:59:23;;;;;;;1.87;1.70;;;22.80;99.90;;;;;;4954578;28;20176;-78
2021/07/31 17:01:49;;;;;;;4.60;1.90;;;22.60;99.90;;;;;;4954370;28;20197;-79
2021/07/31 17:04:14;;;;;;;6.60;1.93;;;22.60;99.90;;;;;;4954319;29;20177;-79
2021/07/31 17:06:40;;;;;;;4.30;1.87;;;22.50;99.90;;;;;;4953944;28;20195;-77
2021/07/31 17:09:05;;;;;;;2.10;1.63;;;22.40;99.90;;;;;;4954003;29;20188;-79
2021/07/31 17:11:31;;;;;;;6.63;2.10;;;22.30;99.90;;;;;;4953923;28;20197;-78
2021/07/31 17:13:57;;;;;;;7.60;2.50;;;22.30;99.90;;;;;;4954054;29;20224;-79
2021/07/31 17:16:23;;;;;;;3.53;2.40;;;22.20;99.90;;;;;;4954144;28;20223;-77
2021/07/31 17:18:48;;;;;;;3.70;2.60;;;22.10;99.90;;;;;;4953869;29;20176;-79